createdAt,value
2023-04-15T03:22:22.690Z,4.65
2023-04-15T03:23:02.629Z,4.64
2023-04-15T03:24:03.528Z,4.65
2023-04-15T03:25:02.606Z,4.64
2023-04-15T03:26:02.609Z,4.62
2023-04-15T03:27:02.593Z,4.67
2023-04-15T03:28:02.615Z,4.65
2023-04-15T03:29:02.692Z,4.65
2023-04-15T03:30:02.567Z,4.64
2023-04-15T03:31:02.595Z,4.64
2023-04-15T03:32:02.536Z,4.65
2023-04-15T03:33:02.717Z,4.65
2023-04-15T03:34:02.549Z,4.67
2023-04-15T03:35:02.515Z,4.64
2023-04-15T03:36:02.510Z,4.61
2023-04-15T03:37:02.479Z,4.62
2023-04-15T03:38:02.490Z,4.62
2023-04-15T03:39:02.678Z,4.61
2023-04-15T03:40:02.461Z,4.62
2023-04-15T03:41:02.459Z,4.61
2023-04-15T03:42:02.439Z,4.57
2023-04-15T03:43:02.417Z,4.54
2023-04-15T03:44:02.432Z,4.53
2023-04-15T03:45:02.445Z,4.50
2023-04-15T03:46:02.521Z,4.50
2023-04-15T03:47:02.380Z,4.47
2023-04-15T03:49:02.657Z,4.49
2023-04-15T03:50:02.393Z,4.49
2023-04-15T03:51:02.372Z,4.50
2023-04-15T03:52:02.370Z,4.49
2023-04-15T03:53:02.341Z,4.50
2023-04-15T03:54:02.368Z,4.50
2023-04-15T03:55:02.305Z,4.51
2023-04-15T03:56:02.292Z,4.53
2023-04-15T03:57:02.317Z,4.51
2023-04-15T03:58:02.313Z,4.51
2023-04-15T03:59:02.562Z,4.51
2023-04-15T04:00:02.325Z,4.51
2023-04-15T04:01:02.273Z,4.51
2023-04-15T04:02:02.301Z,4.51
2023-04-15T04:03:02.385Z,4.53
2023-04-15T04:04:02.325Z,4.53
2023-04-15T04:05:02.237Z,4.54
2023-04-15T04:06:02.223Z,4.53
2023-04-15T04:07:02.175Z,4.56
2023-04-15T04:08:02.155Z,4.56
2023-04-15T04:09:02.436Z,4.57
2023-04-15T04:10:02.144Z,4.57
2023-04-15T04:11:02.133Z,4.59
2023-04-15T04:12:02.174Z,4.62
2023-04-15T04:13:02.112Z,4.62
2023-04-15T04:14:02.130Z,4.64
2023-04-15T04:15:02.106Z,4.65
2023-04-15T04:16:02.306Z,4.65
2023-04-15T04:17:02.140Z,4.68
2023-04-15T04:18:02.076Z,4.68
2023-04-15T04:19:02.282Z,4.68
2023-04-15T04:20:02.008Z,4.68
2023-04-15T04:21:02.025Z,4.68
2023-04-15T04:22:02.022Z,4.71
2023-04-15T04:23:02.007Z,4.71
2023-04-15T04:24:02.061Z,4.72
2023-04-15T04:25:01.948Z,4.74
2023-04-15T04:26:01.921Z,4.75
2023-04-15T04:27:01.934Z,4.75
2023-04-15T04:28:01.921Z,4.75
2023-04-15T04:29:02.146Z,4.77
2023-04-15T04:30:01.883Z,4.77
2023-04-15T04:31:01.865Z,4.79
2023-04-15T04:32:01.951Z,4.83
2023-04-15T04:33:01.916Z,4.86
2023-04-15T04:34:01.833Z,4.86
2023-04-15T04:35:01.875Z,4.88
2023-04-15T04:36:01.816Z,4.87
2023-04-15T04:37:01.807Z,4.91
2023-04-15T04:38:01.820Z,4.94
2023-04-15T04:39:01.952Z,4.94
2023-04-15T04:40:01.793Z,4.96
2023-04-15T04:41:01.766Z,5.01
2023-04-15T04:42:01.752Z,4.99
2023-04-15T04:43:01.787Z,5.01
2023-04-15T04:44:01.752Z,5.01
2023-04-15T04:45:01.728Z,5.04
2023-04-15T04:46:01.733Z,5.04
2023-04-15T04:47:01.703Z,5.05
2023-04-15T04:48:01.743Z,5.05
2023-04-15T04:49:01.937Z,5.06
2023-04-15T04:50:01.682Z,5.08
2023-04-15T04:51:01.653Z,5.06
2023-04-15T04:52:01.758Z,5.08
2023-04-15T04:53:01.637Z,5.09
2023-04-15T04:54:03.597Z,5.12
2023-04-15T04:55:01.724Z,5.14
2023-04-15T04:56:01.601Z,5.15
2023-04-15T04:57:01.591Z,5.17
2023-04-15T04:58:01.573Z,5.22
2023-04-15T04:59:01.723Z,5.20
2023-04-15T05:00:01.563Z,5.23
2023-04-15T05:01:01.616Z,5.23
2023-04-15T05:02:01.619Z,5.23
2023-04-15T05:03:01.836Z,5.26
2023-04-15T05:04:01.655Z,5.27
2023-04-15T05:05:01.535Z,5.30
2023-04-15T05:06:01.517Z,5.30
2023-04-15T05:07:01.509Z,5.33
2023-04-15T05:08:01.529Z,5.35
2023-04-15T05:09:01.571Z,5.35
2023-04-15T05:10:01.453Z,5.37
2023-04-15T05:11:01.442Z,5.40
2023-04-15T05:12:01.453Z,5.37
2023-04-15T05:13:01.441Z,5.38
2023-04-15T05:14:01.432Z,5.40
2023-04-15T05:15:01.391Z,5.40
2023-04-15T05:16:01.479Z,5.41
2023-04-15T05:17:01.437Z,5.40
2023-04-15T05:18:01.418Z,5.41
2023-04-15T05:19:01.556Z,5.42
2023-04-15T05:20:01.431Z,5.42
2023-04-15T05:21:01.368Z,5.42
2023-04-15T05:22:01.332Z,5.41
2023-04-15T05:23:01.367Z,5.41
2023-04-15T05:24:01.321Z,5.45
2023-04-15T05:25:01.282Z,5.47
2023-04-15T05:26:01.284Z,5.48
2023-04-15T05:27:01.282Z,5.48
2023-04-15T05:28:01.251Z,5.49
2023-04-15T05:29:01.683Z,5.51
2023-04-15T05:30:01.225Z,5.51
2023-04-15T05:31:01.268Z,5.52
2023-04-15T05:32:01.214Z,5.52
2023-04-15T05:33:01.262Z,5.52
2023-04-15T05:34:01.224Z,5.55
2023-04-15T05:35:01.161Z,5.58
2023-04-15T05:36:01.174Z,5.59
2023-04-15T05:37:01.511Z,5.60
2023-04-15T05:38:01.175Z,5.63
2023-04-15T05:39:01.374Z,5.63
2023-04-15T05:40:01.186Z,5.63
2023-04-15T05:41:01.130Z,5.63
2023-04-15T05:42:01.111Z,5.65
2023-04-15T05:43:01.100Z,5.65
2023-04-15T05:44:01.351Z,5.67
2023-04-15T05:45:01.195Z,5.67
2023-04-15T05:46:01.377Z,5.67
2023-04-15T05:47:01.117Z,5.69
2023-04-15T05:48:01.119Z,5.70
2023-04-15T05:49:01.237Z,5.67
2023-04-15T05:50:01.078Z,5.73
2023-04-15T05:51:01.069Z,5.73
2023-04-15T05:52:01.072Z,5.70
2023-04-15T05:53:01.053Z,5.69
2023-04-15T05:54:01.025Z,5.69
2023-04-15T05:55:01.010Z,5.69
2023-04-15T05:56:01.009Z,5.69
2023-04-15T05:57:01.073Z,5.67
2023-04-15T05:58:01.000Z,5.66
2023-04-15T05:59:01.125Z,5.66
2023-04-15T06:00:00.977Z,5.66
2023-04-15T06:02:13.305Z,5.67
2023-04-15T06:03:14.425Z,5.67
2023-04-15T06:04:13.582Z,5.66
2023-04-15T06:05:13.410Z,5.65
2023-04-15T06:06:13.349Z,5.66
2023-04-15T06:07:13.375Z,5.65
2023-04-15T06:08:13.361Z,5.63
2023-04-15T06:09:13.360Z,5.65
2023-04-15T06:10:13.367Z,5.63
2023-04-15T06:11:13.323Z,5.65
2023-04-15T06:12:13.357Z,5.63
2023-04-15T06:13:13.319Z,5.63
2023-04-15T06:14:13.288Z,5.65
2023-04-15T06:15:13.293Z,5.63
2023-04-15T06:16:13.311Z,5.63
2023-04-15T06:17:13.262Z,5.63
2023-04-15T06:18:13.292Z,5.63
2023-04-15T06:19:13.664Z,5.62
2023-04-15T06:20:13.275Z,5.62
2023-04-15T06:21:13.277Z,5.63
2023-04-15T06:22:13.227Z,5.62
2023-04-15T06:23:13.200Z,5.62
2023-04-15T06:24:13.198Z,5.60
2023-04-15T06:25:13.192Z,5.60
2023-04-15T06:26:13.212Z,5.60
2023-04-15T06:27:13.154Z,5.60
2023-04-15T06:28:13.145Z,5.60
2023-04-15T06:29:13.122Z,5.62
2023-04-15T06:30:13.149Z,5.63
2023-04-15T06:31:14.654Z,5.65
2023-04-15T06:32:13.139Z,5.62
2023-04-15T06:33:13.085Z,5.62
2023-04-15T06:34:13.165Z,5.60
2023-04-15T06:35:20.842Z,5.59
2023-04-15T06:36:13.155Z,5.59
2023-04-15T06:37:13.130Z,5.58
2023-04-15T06:38:13.040Z,5.56
2023-04-15T06:39:13.041Z,5.56
2023-04-15T06:40:13.053Z,5.55
2023-04-15T06:41:12.999Z,5.56
2023-04-15T06:42:13.008Z,5.52
2023-04-15T06:43:13.027Z,5.52
2023-04-15T06:44:12.969Z,5.51
2023-04-15T06:45:12.970Z,5.52
2023-04-15T06:46:13.114Z,5.52
2023-04-15T06:47:12.966Z,5.55
2023-04-15T06:48:12.992Z,5.56
2023-04-15T06:49:12.917Z,5.58
2023-04-15T06:50:12.937Z,5.59
2023-04-15T06:51:12.919Z,5.59
2023-04-15T06:52:12.921Z,5.56
2023-04-15T06:53:12.906Z,5.56
2023-04-15T06:54:12.908Z,5.56
2023-04-15T06:55:12.879Z,5.58
2023-04-15T06:56:12.852Z,5.58
2023-04-15T06:57:12.863Z,5.56
2023-04-15T06:58:12.854Z,5.59
2023-04-15T06:59:12.866Z,5.59
2023-04-15T07:00:12.836Z,5.59
2023-04-15T07:01:12.844Z,5.60
2023-04-15T07:02:12.820Z,5.62
2023-04-15T07:03:12.849Z,5.63
2023-04-15T07:04:12.811Z,5.63
2023-04-15T07:05:12.794Z,5.63
2023-04-15T07:06:12.781Z,5.65
2023-04-15T07:07:12.737Z,5.65
2023-04-15T07:08:12.746Z,5.65
2023-04-15T07:09:12.734Z,5.60
2023-04-15T07:10:12.758Z,5.63
2023-04-15T07:11:12.731Z,5.62
2023-04-15T07:12:12.723Z,5.59
2023-04-15T07:13:12.690Z,5.59
2023-04-15T07:14:12.681Z,5.59
2023-04-15T07:15:12.682Z,5.59
2023-04-15T07:16:12.697Z,5.58
2023-04-15T07:17:12.687Z,5.58
2023-04-15T07:18:12.637Z,5.56
2023-04-15T07:19:12.645Z,5.56
2023-04-15T07:20:12.682Z,5.52
2023-04-15T07:21:12.643Z,5.55
2023-04-15T07:22:12.596Z,5.55
2023-04-15T07:23:12.577Z,5.55
2023-04-15T07:24:12.576Z,5.56
2023-04-15T07:25:12.558Z,5.56
2023-04-15T07:26:12.596Z,5.58
2023-04-15T07:27:12.541Z,5.55
2023-04-15T07:28:12.541Z,5.55
2023-04-15T07:29:12.519Z,5.55
2023-04-15T07:30:12.525Z,5.56
2023-04-15T07:31:12.508Z,5.55
2023-04-15T07:32:12.511Z,5.52
2023-04-15T07:33:12.492Z,5.51
2023-04-15T07:34:12.501Z,5.51
2023-04-15T07:35:12.445Z,5.52
2023-04-15T07:36:12.453Z,5.52
2023-04-15T07:37:12.435Z,5.52
2023-04-15T07:38:12.429Z,5.55
2023-04-15T07:39:12.418Z,5.55
2023-04-15T07:40:12.423Z,5.56
2023-04-15T07:41:12.427Z,5.58
2023-04-15T07:42:12.419Z,5.56
2023-04-15T07:43:12.366Z,5.56
2023-04-15T07:44:12.371Z,5.59
2023-04-15T07:45:12.371Z,5.59
2023-04-15T07:46:12.447Z,5.55
2023-04-15T07:47:12.330Z,5.55
2023-04-15T07:48:12.326Z,5.55
2023-04-15T07:49:12.346Z,5.56
2023-04-15T07:50:12.319Z,5.58
2023-04-15T07:51:12.313Z,5.56
2023-04-15T07:52:12.309Z,5.55
2023-04-15T07:53:12.301Z,5.55
2023-04-15T07:54:12.282Z,5.52
2023-04-15T07:55:12.265Z,5.52
2023-04-15T07:56:12.309Z,5.52
2023-04-15T07:57:12.227Z,5.52
2023-04-15T07:58:12.239Z,5.49
2023-04-15T07:59:12.578Z,5.52
2023-04-15T08:00:12.221Z,5.55
2023-04-15T08:01:12.177Z,5.49
2023-04-15T08:02:12.269Z,5.48
2023-04-15T08:03:12.271Z,5.49
2023-04-15T08:04:12.443Z,5.51
2023-04-15T08:05:12.191Z,5.52
2023-04-15T08:06:12.145Z,5.55
2023-04-15T08:07:12.179Z,5.56
2023-04-15T08:08:12.134Z,5.55
2023-04-15T08:09:12.104Z,5.56
2023-04-15T08:10:12.109Z,5.52
2023-04-15T08:11:12.112Z,5.51
2023-04-15T08:12:12.073Z,5.55
2023-04-15T08:13:12.070Z,5.55
2023-04-15T08:14:12.088Z,5.55
2023-04-15T08:15:12.055Z,5.52
2023-04-15T08:16:12.069Z,5.56
2023-04-15T08:17:12.042Z,5.56
2023-04-15T08:18:12.018Z,5.60
2023-04-15T08:19:12.012Z,5.60
2023-04-15T08:20:12.005Z,5.60
2023-04-15T08:21:12.020Z,5.65
2023-04-15T08:22:17.720Z,5.65
2023-04-15T08:23:11.969Z,5.65
2023-04-15T08:24:11.985Z,5.66
2023-04-15T08:25:11.983Z,5.66
2023-04-15T08:26:11.931Z,5.66
2023-04-15T08:27:11.941Z,5.66
2023-04-15T08:28:11.931Z,5.67
2023-04-15T08:29:12.046Z,5.70
2023-04-15T08:30:11.950Z,5.69
2023-04-15T08:31:11.930Z,5.73
2023-04-15T08:32:12.008Z,5.69
2023-04-15T08:33:11.900Z,5.70
2023-04-15T08:34:11.885Z,5.74
2023-04-15T08:35:11.857Z,5.75
2023-04-15T08:36:11.842Z,5.75
2023-04-15T08:37:12.737Z,5.74
2023-04-15T08:38:11.825Z,5.70
2023-04-15T08:39:11.839Z,5.69
2023-04-15T08:40:11.804Z,5.69
2023-04-15T08:41:11.799Z,5.69
2023-04-15T08:42:11.773Z,5.70
2023-04-15T08:43:11.761Z,5.73
2023-04-15T08:44:11.772Z,5.73
2023-04-15T08:45:11.779Z,5.70
2023-04-15T08:46:11.781Z,5.69
2023-04-15T08:47:17.692Z,5.67
2023-04-15T08:48:15.600Z,5.67
2023-04-15T08:49:38.497Z,5.67
2023-04-15T08:50:15.982Z,5.70
2023-04-15T08:51:13.446Z,5.75
2023-04-15T08:52:34.653Z,5.74
2023-04-15T08:53:19.942Z,5.78
2023-04-15T08:54:16.846Z,5.78
2023-04-15T08:55:13.690Z,5.77
2023-04-15T08:56:13.385Z,5.80
2023-04-15T08:57:11.790Z,5.84
2023-04-15T08:58:13.950Z,5.84
2023-04-15T08:59:12.798Z,5.85
2023-04-15T09:00:32.189Z,5.85
2023-04-15T09:01:12.831Z,5.87
2023-04-15T09:14:52.729Z,5.85
2023-04-15T09:15:31.155Z,5.84
2023-04-15T09:16:31.179Z,5.83
2023-04-15T09:17:31.201Z,5.78
2023-04-15T09:18:31.142Z,5.80
2023-04-15T09:19:31.123Z,5.75
2023-04-15T09:20:31.091Z,5.78
2023-04-15T09:21:31.113Z,5.78
2023-04-15T09:22:31.101Z,5.81
2023-04-15T09:23:31.138Z,5.80
2023-04-15T09:24:31.112Z,5.83
2023-04-15T09:25:32.790Z,5.81
2023-04-15T09:26:31.081Z,5.84
2023-04-15T09:27:31.022Z,5.90
2023-04-15T09:28:31.018Z,5.90
2023-04-15T09:29:31.000Z,5.93
2023-04-15T09:30:31.025Z,5.93
2023-04-15T09:31:30.971Z,5.93
2023-04-15T09:32:30.984Z,5.93
2023-04-15T09:33:30.962Z,5.93
2023-04-15T09:34:30.965Z,5.92
2023-04-15T09:35:30.945Z,5.92
2023-04-15T09:36:30.933Z,5.90
2023-04-15T09:37:32.404Z,5.90
2023-04-15T09:38:30.920Z,5.92
2023-04-15T09:39:30.885Z,5.92
2023-04-15T09:40:30.924Z,5.92
2023-04-15T09:41:30.873Z,5.88
2023-04-15T09:42:30.871Z,5.88
2023-04-15T09:43:30.850Z,5.88
2023-04-15T09:44:30.893Z,5.88
2023-04-15T09:45:30.874Z,5.90
2023-04-15T09:46:30.920Z,5.90
2023-04-15T09:47:30.914Z,5.90
2023-04-15T09:48:30.862Z,5.92
2023-04-15T09:49:30.845Z,5.93
2023-04-15T09:50:30.802Z,5.95
2023-04-15T09:51:30.791Z,5.98
2023-04-15T09:52:30.852Z,5.99
2023-04-15T09:53:31.919Z,6.01
2023-04-15T09:54:30.749Z,6.03
2023-04-15T09:55:30.766Z,6.02
2023-04-15T09:56:30.760Z,6.05
2023-04-15T09:57:30.751Z,6.01
2023-04-15T09:58:30.734Z,6.02
2023-04-15T09:59:30.713Z,6.01
2023-04-15T10:00:30.694Z,6.03
2023-04-15T10:01:30.726Z,6.02
2023-04-15T10:02:30.763Z,6.02
2023-04-15T10:03:30.797Z,6.02
2023-04-15T10:04:30.649Z,6.03
2023-04-15T10:05:31.315Z,6.10
2023-04-15T10:06:30.625Z,6.11
2023-04-15T10:07:30.756Z,6.13
2023-04-15T10:08:30.740Z,6.13
2023-04-15T10:09:30.642Z,6.16
2023-04-15T10:10:30.610Z,6.14
2023-04-15T10:11:31.791Z,6.14
2023-04-15T10:12:30.587Z,6.16
2023-04-15T10:13:30.600Z,6.17
2023-04-15T10:14:30.678Z,6.20
2023-04-15T10:15:30.602Z,6.21
2023-04-15T10:16:30.565Z,6.24
2023-04-15T10:17:31.809Z,6.27
2023-04-15T10:18:30.534Z,6.27
2023-04-15T10:19:30.562Z,6.27
2023-04-15T10:20:30.561Z,6.28
2023-04-15T10:21:31.217Z,6.32
2023-04-15T10:22:30.492Z,6.30
2023-04-15T10:23:30.475Z,6.32
2023-04-15T10:24:30.488Z,6.33
2023-04-15T10:25:30.487Z,6.33
2023-04-15T10:26:30.520Z,6.35
2023-04-15T10:27:30.486Z,6.35
2023-04-15T10:28:30.435Z,6.36
2023-04-15T10:29:30.404Z,6.38
2023-04-15T10:30:30.457Z,6.38
2023-04-15T10:31:30.471Z,6.38
2023-04-15T10:32:30.424Z,6.36
2023-04-15T10:33:30.376Z,6.35
2023-04-15T10:34:30.387Z,6.36
2023-04-15T10:35:30.357Z,6.38
2023-04-15T10:36:30.407Z,6.38
2023-04-15T10:37:30.357Z,6.39
2023-04-15T10:38:30.343Z,6.39
2023-04-15T10:39:30.323Z,6.36
2023-04-15T10:40:30.387Z,6.36
2023-04-15T10:41:30.312Z,6.36
2023-04-15T10:42:30.293Z,6.38
2023-04-15T10:43:30.314Z,6.35
2023-04-15T10:44:30.454Z,6.38
2023-04-15T10:45:30.488Z,6.36
2023-04-15T10:46:30.359Z,6.39
2023-04-15T10:47:30.337Z,6.38
2023-04-15T10:48:30.406Z,6.38
2023-04-15T10:49:30.250Z,6.38
2023-04-15T10:50:30.237Z,6.36
2023-04-15T10:51:30.207Z,6.39
2023-04-15T10:52:30.240Z,6.39
2023-04-15T10:53:30.182Z,6.40
2023-04-15T10:54:30.263Z,6.42
2023-04-15T10:55:30.186Z,6.40
2023-04-15T10:56:30.497Z,6.42
2023-04-15T10:57:30.150Z,6.42
2023-04-15T10:58:30.168Z,6.42
2023-04-15T10:59:30.121Z,6.45
2023-04-15T11:00:30.121Z,6.45
2023-04-15T11:01:30.192Z,6.46
2023-04-15T11:02:30.351Z,6.50
2023-04-15T11:03:30.192Z,6.48
2023-04-15T11:04:30.147Z,6.48
2023-04-15T11:05:30.089Z,6.51
2023-04-15T11:06:30.100Z,6.51
2023-04-15T11:07:30.077Z,6.54
2023-04-15T11:08:30.065Z,6.53
2023-04-15T11:09:30.025Z,6.54
2023-04-15T11:10:30.037Z,6.55
2023-04-15T11:11:30.041Z,6.57
2023-04-15T11:12:30.049Z,6.58
2023-04-15T11:13:29.984Z,6.58
2023-04-15T11:14:30.017Z,6.58
2023-04-15T11:15:30.006Z,6.60
2023-04-15T11:16:30.058Z,6.60
2023-04-15T11:17:30.095Z,6.61
2023-04-15T11:18:29.977Z,6.60
2023-04-15T11:19:29.984Z,6.60
2023-04-15T11:20:29.944Z,6.63
2023-04-15T11:21:29.919Z,6.63
2023-04-15T11:22:29.924Z,6.63
2023-04-15T11:23:29.903Z,6.61
2023-04-15T11:24:29.876Z,6.63
2023-04-15T11:25:29.873Z,6.63
2023-04-15T11:26:29.874Z,6.63
2023-04-15T11:27:29.865Z,6.63
2023-04-15T11:28:29.885Z,6.63
2023-04-15T11:29:29.847Z,6.63
2023-04-15T11:30:29.823Z,6.63
2023-04-15T11:31:29.862Z,6.63
2023-04-15T11:32:29.826Z,6.63
2023-04-15T11:33:29.826Z,6.63
2023-04-15T11:34:29.777Z,6.64
2023-04-15T11:35:29.813Z,6.65
2023-04-15T11:36:29.776Z,6.64
2023-04-15T11:37:29.884Z,6.64
2023-04-15T11:38:29.772Z,6.64
2023-04-15T11:39:29.754Z,6.64
2023-04-15T11:40:29.747Z,6.65
2023-04-15T11:41:29.721Z,6.65
2023-04-15T11:42:39.254Z,6.65
2023-04-15T11:43:29.755Z,6.68
2023-04-15T11:44:29.749Z,6.68
2023-04-15T11:45:29.781Z,6.68
2023-04-15T11:46:30.086Z,6.68
2023-04-15T11:47:29.700Z,6.69
2023-04-15T11:48:29.675Z,6.68
2023-04-15T11:49:29.658Z,6.68
2023-04-15T11:50:29.686Z,6.68
2023-04-15T11:51:29.623Z,6.69
2023-04-15T11:52:29.608Z,6.72
2023-04-15T11:53:29.795Z,6.72
2023-04-15T11:54:29.594Z,6.73
2023-04-15T11:55:29.601Z,6.72
2023-04-15T11:56:29.575Z,6.72
2023-04-15T11:57:29.597Z,6.73
2023-04-15T11:58:29.585Z,6.72
2023-04-15T11:59:38.933Z,6.73
2023-04-15T12:00:29.542Z,6.75
2023-04-15T12:01:29.543Z,6.73
2023-04-15T12:02:29.613Z,6.75
2023-04-15T12:03:29.972Z,6.75
2023-04-15T12:04:29.788Z,6.75
2023-04-15T12:05:29.610Z,6.76
2023-04-15T12:06:29.494Z,6.76
2023-04-15T12:07:29.495Z,6.78
2023-04-15T12:08:29.675Z,6.79
2023-04-15T12:09:31.394Z,6.78
2023-04-15T12:10:29.451Z,6.79
2023-04-15T12:11:29.447Z,6.81
2023-04-15T12:12:29.577Z,6.81
2023-04-15T12:13:29.404Z,6.81
2023-04-15T12:14:29.490Z,6.82
2023-04-15T12:15:29.446Z,6.81
2023-04-15T12:16:29.380Z,6.83
2023-04-15T12:17:29.411Z,6.82
2023-04-15T12:18:29.440Z,6.83
2023-04-15T12:19:29.363Z,6.82
2023-04-15T12:20:29.367Z,6.82
2023-04-15T12:21:29.335Z,6.83
2023-04-15T12:22:29.354Z,6.86
2023-04-15T12:23:29.311Z,6.83
2023-04-15T12:24:29.311Z,6.87
2023-04-15T12:25:29.304Z,6.86
2023-04-15T12:26:29.284Z,6.87
2023-04-15T12:27:29.882Z,6.86
2023-04-15T12:28:29.267Z,6.87
2023-04-15T12:29:29.345Z,6.89
2023-04-15T12:30:29.803Z,6.89
2023-04-15T12:31:29.275Z,6.91
2023-04-15T12:32:29.283Z,6.89
2023-04-15T12:33:29.226Z,6.91
2023-04-15T12:34:29.201Z,6.91
2023-04-15T12:35:29.211Z,6.90
2023-04-15T12:36:29.178Z,6.91
2023-04-15T12:37:29.180Z,6.90
2023-04-15T12:38:29.181Z,6.93
2023-04-15T12:39:30.677Z,6.90
2023-04-15T12:40:29.181Z,6.91
2023-04-15T12:41:29.153Z,6.93
2023-04-15T12:42:29.142Z,6.93
2023-04-15T12:43:29.167Z,6.94
2023-04-15T12:44:29.117Z,6.94
2023-04-15T12:45:29.953Z,6.93
2023-04-15T12:46:29.135Z,6.93
2023-04-15T12:47:29.158Z,6.91
2023-04-15T12:48:29.127Z,6.91
2023-04-15T12:49:29.099Z,6.94
2023-04-15T12:50:29.070Z,6.93
2023-04-15T12:51:29.044Z,6.94
2023-04-15T12:52:29.046Z,6.94
2023-04-15T12:53:29.037Z,6.94
2023-04-15T12:54:29.070Z,6.93
2023-04-15T12:55:29.021Z,6.91
2023-04-15T12:56:28.997Z,6.91
2023-04-15T12:57:28.996Z,6.91
2023-04-15T12:58:28.994Z,6.94
2023-04-15T12:59:28.976Z,6.94
2023-04-15T13:00:28.995Z,6.94
2023-04-15T13:01:29.007Z,6.94
2023-04-15T13:02:29.008Z,6.94
2023-04-15T13:03:29.056Z,6.96
2023-04-15T13:04:28.981Z,6.97
2023-04-15T13:05:29.294Z,6.97
2023-04-15T13:06:28.896Z,6.97
2023-04-15T13:07:28.888Z,6.99
2023-04-15T13:08:28.893Z,7.00
2023-04-15T13:09:28.882Z,7.00
2023-04-15T13:10:28.885Z,7.01
2023-04-15T13:11:28.853Z,7.00
2023-04-15T13:12:28.842Z,7.00
2023-04-15T13:13:28.843Z,7.01
2023-04-15T13:14:28.822Z,7.00
2023-04-15T13:15:28.813Z,7.01
2023-04-15T13:16:28.884Z,7.01
2023-04-15T13:17:28.787Z,7.00
2023-04-15T13:18:28.801Z,7.00
2023-04-15T13:19:28.765Z,7.00
2023-04-15T13:20:28.787Z,7.01
2023-04-15T13:21:28.755Z,7.00
2023-04-15T13:22:28.778Z,7.04
2023-04-15T13:23:28.762Z,7.04
2023-04-15T13:24:28.720Z,7.05
2023-04-15T13:25:28.738Z,7.04
2023-04-15T13:26:28.699Z,7.04
2023-04-15T13:27:28.721Z,7.05
2023-04-15T13:28:28.690Z,7.04
2023-04-15T13:29:28.681Z,7.01
2023-04-15T13:30:28.663Z,7.01
2023-04-15T13:31:28.839Z,7.01
2023-04-15T13:32:28.690Z,7.01
2023-04-15T13:33:28.653Z,7.04
2023-04-15T13:34:28.633Z,7.05
2023-04-15T13:35:28.637Z,7.07
2023-04-15T13:36:28.602Z,7.05
2023-04-15T13:37:28.627Z,7.05
2023-04-15T13:38:28.590Z,7.08
2023-04-15T13:39:28.592Z,7.05
2023-04-15T13:40:28.585Z,7.08
2023-04-15T13:41:28.562Z,7.08
2023-04-15T13:42:28.557Z,7.05
2023-04-15T13:43:28.567Z,7.05
2023-04-15T13:44:28.530Z,7.05
2023-04-15T13:45:28.538Z,7.05
2023-04-15T13:46:28.514Z,7.05
2023-04-15T13:47:28.548Z,7.07
2023-04-15T13:48:28.588Z,7.08
2023-04-15T13:49:28.509Z,7.08
2023-04-15T13:50:28.473Z,7.05
2023-04-15T13:51:28.470Z,7.08
2023-04-15T13:52:28.457Z,7.09
2023-04-15T13:53:38.363Z,7.08
2023-04-15T13:54:37.494Z,7.08
2023-04-15T13:55:28.831Z,7.09
2023-04-15T13:56:28.455Z,7.08
2023-04-15T13:57:28.404Z,7.11
2023-04-15T13:58:28.401Z,7.11
2023-04-15T13:59:28.973Z,7.11
2023-04-15T14:00:28.382Z,7.12
2023-04-15T14:01:28.448Z,7.09
2023-04-15T14:02:28.510Z,7.11
2023-04-15T14:03:28.529Z,7.11
2023-04-15T14:04:28.481Z,7.12
2023-04-15T14:05:28.317Z,7.08
2023-04-15T14:06:28.319Z,7.08
2023-04-15T14:07:28.305Z,7.08
2023-04-15T14:08:28.827Z,7.08
2023-04-15T14:09:28.293Z,7.09
2023-04-15T14:10:28.287Z,7.09
2023-04-15T14:11:28.314Z,7.09
2023-04-15T14:12:28.264Z,7.11
2023-04-15T14:13:28.270Z,7.09
2023-04-15T14:14:28.267Z,7.11
2023-04-15T14:15:28.276Z,7.12
2023-04-15T14:16:28.327Z,7.12
2023-04-15T14:17:28.357Z,7.12
2023-04-15T14:18:28.230Z,7.14
2023-04-15T14:19:28.221Z,7.15
2023-04-15T14:20:28.222Z,7.14
2023-04-15T14:21:28.212Z,7.14
2023-04-15T14:22:28.160Z,7.15
2023-04-15T14:23:33.654Z,7.15
2023-04-15T14:24:28.194Z,7.15
2023-04-15T14:25:33.652Z,7.14
2023-04-15T14:26:28.130Z,7.14
2023-04-15T14:27:28.108Z,7.12
2023-04-15T14:28:28.099Z,7.12
2023-04-15T14:29:28.090Z,7.14
2023-04-15T14:30:28.119Z,7.12
2023-04-15T14:31:28.241Z,7.11
2023-04-15T14:32:28.104Z,7.12
2023-04-15T14:33:29.403Z,7.12
2023-04-15T14:34:28.197Z,7.14
2023-04-15T14:35:28.956Z,7.14
2023-04-15T14:36:29.044Z,7.14
2023-04-15T14:37:28.143Z,7.16
2023-04-15T14:38:28.100Z,7.15
2023-04-15T14:39:27.990Z,7.16
2023-04-15T14:40:28.104Z,7.16
2023-04-15T14:41:28.910Z,7.16
2023-04-15T14:42:28.503Z,7.16
2023-04-15T14:43:28.027Z,7.18
2023-04-15T14:44:28.014Z,7.18
2023-04-15T14:45:28.032Z,7.18
2023-04-15T14:46:28.405Z,7.19
2023-04-15T14:47:28.301Z,7.19
2023-04-15T14:48:27.941Z,7.21
2023-04-15T14:49:28.761Z,7.19
2023-04-15T14:50:27.949Z,7.19
2023-04-15T14:51:27.907Z,7.19
2023-04-15T14:52:27.911Z,7.21
2023-04-15T14:53:27.872Z,7.18
2023-04-15T14:54:27.870Z,7.18
2023-04-15T14:55:27.857Z,7.21
2023-04-15T14:56:28.837Z,7.21
2023-04-15T14:57:27.816Z,7.23
2023-04-15T14:58:28.405Z,7.24
2023-04-15T14:59:27.800Z,7.26
2023-04-15T15:00:27.834Z,7.26
2023-04-15T15:01:27.815Z,7.26
2023-04-15T15:02:38.094Z,7.26
2023-04-15T15:03:27.882Z,7.27
2023-04-15T15:04:27.926Z,7.27
2023-04-15T15:05:28.402Z,7.27
2023-04-15T15:06:27.742Z,7.30
2023-04-15T15:07:27.741Z,7.30
2023-04-15T15:08:27.714Z,7.29
2023-04-15T15:09:27.731Z,7.30
2023-04-15T15:10:46.889Z,7.29
2023-04-15T15:11:27.697Z,7.29
2023-04-15T15:12:27.680Z,7.30
2023-04-15T15:13:27.741Z,7.30
2023-04-15T15:14:27.671Z,7.30
2023-04-15T15:15:29.152Z,7.29
2023-04-15T15:16:27.757Z,7.30
2023-04-15T15:17:27.816Z,7.30
2023-04-15T15:18:27.606Z,7.30
2023-04-15T15:19:28.266Z,7.32
2023-04-15T15:20:27.607Z,7.32
2023-04-15T15:21:28.004Z,7.32
2023-04-15T15:22:27.583Z,7.32
2023-04-15T15:23:27.574Z,7.32
2023-04-15T15:24:27.570Z,7.34
2023-04-15T15:25:28.409Z,7.34
2023-04-15T15:26:27.579Z,7.36
2023-04-15T15:27:27.535Z,7.36
2023-04-15T15:28:27.546Z,7.36
2023-04-15T15:29:27.552Z,7.36
2023-04-15T15:30:27.516Z,7.37
2023-04-15T15:31:27.511Z,7.37
2023-04-15T15:32:27.522Z,7.39
2023-04-15T15:33:29.545Z,7.39
2023-04-15T15:34:27.476Z,7.39
2023-04-15T15:35:27.466Z,7.39
2023-04-15T15:36:27.459Z,7.41
2023-04-15T15:37:27.471Z,7.42
2023-04-15T15:38:27.427Z,7.42
2023-04-15T15:39:27.417Z,7.42
2023-04-15T15:40:27.401Z,7.42
2023-04-15T15:41:27.397Z,7.44
2023-04-15T15:42:27.700Z,7.44
2023-04-15T15:43:27.430Z,7.44
2023-04-15T15:44:27.362Z,7.45
2023-04-15T15:45:27.419Z,7.45
2023-04-15T15:46:27.393Z,7.45
2023-04-15T15:47:27.795Z,7.45
2023-04-15T15:48:27.323Z,7.47
2023-04-15T15:49:27.348Z,7.45
2023-04-15T15:50:27.308Z,7.47
2023-04-15T15:51:27.417Z,7.47
2023-04-15T15:52:27.281Z,7.45
2023-04-15T15:53:27.277Z,7.45
2023-04-15T15:54:27.815Z,7.47
2023-04-15T15:55:27.262Z,7.45
2023-04-15T15:56:27.314Z,7.47
2023-04-15T15:57:27.228Z,7.47
2023-04-15T15:58:27.219Z,7.47
2023-04-15T15:59:27.224Z,7.48
2023-04-15T16:00:27.218Z,7.47
2023-04-15T16:01:27.258Z,7.48
2023-04-15T16:02:52.383Z,7.47
2023-04-15T16:03:27.380Z,7.45
2023-04-15T16:04:27.332Z,7.45
2023-04-15T16:05:27.214Z,7.47
2023-04-15T16:06:27.145Z,7.45
2023-04-15T16:07:27.146Z,7.47
2023-04-15T16:08:27.115Z,7.47
2023-04-15T16:09:27.122Z,7.48
2023-04-15T16:10:27.102Z,7.48
2023-04-15T16:11:28.171Z,7.48
2023-04-15T16:12:27.081Z,7.48
2023-04-15T16:13:27.500Z,7.47
2023-04-15T16:14:27.059Z,7.47
2023-04-15T16:15:27.052Z,7.48
2023-04-15T16:16:27.233Z,7.50
2023-04-15T16:17:27.709Z,7.48
2023-04-15T16:18:32.028Z,7.50
2023-04-15T16:19:27.014Z,7.50
2023-04-15T16:20:27.000Z,7.50
2023-04-15T16:21:26.983Z,7.51
2023-04-15T16:22:27.060Z,7.52
2023-04-15T16:23:27.051Z,7.52
2023-04-15T16:24:27.914Z,7.54
2023-04-15T16:25:26.990Z,7.54
2023-04-15T16:26:26.978Z,7.55
2023-04-15T16:27:26.965Z,7.55
2023-04-15T16:28:27.405Z,7.55
2023-04-15T16:29:26.923Z,7.58
2023-04-15T16:30:26.900Z,7.57
2023-04-15T16:31:26.930Z,7.58
2023-04-15T16:32:26.890Z,7.60
2023-04-15T16:33:26.874Z,7.60
2023-04-15T16:34:26.895Z,7.60
2023-04-15T16:35:26.875Z,7.63
2023-04-15T16:36:26.866Z,7.63
2023-04-15T16:37:26.823Z,7.66
2023-04-15T16:38:26.833Z,7.67
2023-04-15T16:39:26.817Z,7.69
2023-04-15T16:40:26.788Z,7.69
2023-04-15T16:41:26.817Z,7.69
2023-04-15T16:42:26.781Z,7.69
2023-04-15T16:43:26.771Z,7.70
2023-04-15T16:44:27.336Z,7.69
2023-04-15T16:45:26.751Z,7.69
2023-04-15T16:46:27.517Z,7.69
2023-04-15T16:47:27.936Z,7.70
2023-04-15T16:48:26.722Z,7.71
2023-04-15T16:49:28.183Z,7.73
2023-04-15T16:50:27.696Z,7.73
2023-04-15T16:51:26.680Z,7.71
2023-04-15T16:52:26.694Z,7.73
2023-04-15T16:53:26.669Z,7.73
2023-04-15T16:54:27.432Z,7.74